createdAt,value
2016-07-27T00:00:32.459Z,23.35
2016-07-27T00:01:33.194Z,23.48
2016-07-27T00:02:32.454Z,23.42
2016-07-27T00:03:32.432Z,23.41
2016-07-27T00:04:32.488Z,23.4
2016-07-27T00:05:32.490Z,23.5
2016-07-27T00:06:32.470Z,23.45
2016-07-27T00:07:32.525Z,23.42
2016-07-27T00:08:32.496Z,23.38
2016-07-27T00:09:32.484Z,23.35
2016-07-27T00:10:32.530Z,23.38
2016-07-27T00:11:32.503Z,23.41
2016-07-27T00:12:32.567Z,23.37
2016-07-27T00:13:32.528Z,23.4
2016-07-27T00:14:32.536Z,23.38
2016-07-27T00:15:32.572Z,23.47
2016-07-27T00:16:32.572Z,23.41
2016-07-27T00:17:32.563Z,23.38
2016-07-27T00:18:32.583Z,23.42
2016-07-27T00:19:32.602Z,23.4
2016-07-27T00:20:32.620Z,23.41
2016-07-27T00:21:32.629Z,23.37
2016-07-27T00:22:32.589Z,23.41
2016-07-27T00:23:32.634Z,23.45
2016-07-27T00:24:32.608Z,23.32
2016-07-27T00:25:32.651Z,23.41
2016-07-27T00:26:32.686Z,23.4
2016-07-27T00:27:32.658Z,23.38
2016-07-27T00:28:32.678Z,23.4
2016-07-27T00:29:32.684Z,23.38
2016-07-27T00:30:32.712Z,23.32
2016-07-27T00:31:32.690Z,23.38
2016-07-27T00:32:32.709Z,23.35
2016-07-27T00:33:32.691Z,23.4
2016-07-27T00:34:32.695Z,23.4
2016-07-27T00:35:32.724Z,23.34
2016-07-27T00:36:32.754Z,23.4
2016-07-27T00:37:32.784Z,23.4
2016-07-27T00:38:32.743Z,23.34
2016-07-27T00:39:32.780Z,23.29
2016-07-27T00:40:32.759Z,23.4
2016-07-27T00:41:32.793Z,23.29
2016-07-27T00:42:32.801Z,23.29
2016-07-27T00:43:32.817Z,23.37
2016-07-27T00:44:32.791Z,23.37
2016-07-27T00:45:32.819Z,23.35
2016-07-27T00:46:32.827Z,23.34
2016-07-27T00:47:32.827Z,23.34
2016-07-27T00:48:32.849Z,23.44
2016-07-27T00:49:32.875Z,23.32
2016-07-27T00:50:32.833Z,23.41
2016-07-27T00:51:32.890Z,23.35
2016-07-27T00:52:32.858Z,23.34
2016-07-27T00:53:32.878Z,23.37
2016-07-27T00:54:32.909Z,23.37
2016-07-27T00:55:32.920Z,23.32
2016-07-27T00:56:32.905Z,23.4
2016-07-27T00:57:32.930Z,23.34
2016-07-27T00:58:32.946Z,23.32
2016-07-27T00:59:32.957Z,23.35
2016-07-27T01:00:32.915Z,23.34
2016-07-27T01:01:32.948Z,23.35
2016-07-27T01:02:32.949Z,23.38
2016-07-27T01:03:32.952Z,23.37
2016-07-27T01:04:32.978Z,23.37
2016-07-27T01:05:33.685Z,23.37
2016-07-27T01:06:32.973Z,23.34
2016-07-27T01:07:32.985Z,23.38
2016-07-27T01:08:32.988Z,23.38
2016-07-27T01:09:33.035Z,23.35
2016-07-27T01:10:33.024Z,23.26
2016-07-27T01:11:33.034Z,23.32
2016-07-27T01:12:33.075Z,23.38
2016-07-27T01:13:33.042Z,23.37
2016-07-27T01:14:33.036Z,23.34
2016-07-27T01:15:33.075Z,23.35
2016-07-27T01:16:33.095Z,23.35
2016-07-27T01:17:33.079Z,23.37
2016-07-27T01:18:33.097Z,23.38
2016-07-27T01:19:33.075Z,23.24
2016-07-27T01:20:33.102Z,23.34
2016-07-27T01:21:33.139Z,23.28
2016-07-27T01:22:33.114Z,23.4
2016-07-27T01:23:33.147Z,23.32
2016-07-27T01:24:33.155Z,23.35
2016-07-27T01:25:33.185Z,23.37
2016-07-27T01:26:33.172Z,23.25
2016-07-27T01:27:33.158Z,23.26
2016-07-27T01:28:33.162Z,23.37
2016-07-27T01:29:33.184Z,23.34
2016-07-27T01:30:33.205Z,23.26
2016-07-27T01:31:33.211Z,23.32
2016-07-27T01:32:33.212Z,23.29
2016-07-27T01:33:33.251Z,23.22
2016-07-27T01:34:33.216Z,23.34
2016-07-27T01:35:33.263Z,23.21
2016-07-27T01:37:33.260Z,23.28
2016-07-27T01:38:33.283Z,23.32
2016-07-27T01:39:33.266Z,23.32
2016-07-27T01:40:33.251Z,23.26
2016-07-27T01:41:33.281Z,23.28
2016-07-27T01:42:33.285Z,23.35
2016-07-27T01:43:33.302Z,23.35
2016-07-27T01:44:33.309Z,23.29
2016-07-27T01:45:33.309Z,23.28
2016-07-27T01:46:33.330Z,23.34
2016-07-27T01:47:33.338Z,23.26
2016-07-27T01:48:33.319Z,23.22
2016-07-27T01:49:33.367Z,23.26
2016-07-27T01:50:33.372Z,23.25
2016-07-27T01:52:33.390Z,23.34
2016-07-27T01:53:33.391Z,23.28
2016-07-27T01:54:33.405Z,23.16
2016-07-27T01:55:33.438Z,23.22
2016-07-27T01:56:33.424Z,23.24
2016-07-27T01:57:33.421Z,23.26
2016-07-27T01:58:33.448Z,23.16
2016-07-27T01:59:33.433Z,23.22
2016-07-27T02:00:33.446Z,23.18
2016-07-27T02:01:33.474Z,23.16
2016-07-27T02:02:33.442Z,23.21
2016-07-27T02:03:33.473Z,23.14
2016-07-27T02:04:33.511Z,23.26
2016-07-27T02:05:33.522Z,23.22
2016-07-27T02:07:33.518Z,23.29
2016-07-27T02:08:33.529Z,23.18
2016-07-27T02:09:33.501Z,23.22
2016-07-27T02:10:33.561Z,23.24
2016-07-27T02:11:33.556Z,23.24
2016-07-27T02:12:33.554Z,23.19
2016-07-27T02:13:33.559Z,23.28
2016-07-27T02:14:33.561Z,23.19
2016-07-27T02:15:33.589Z,23.18
2016-07-27T02:16:33.606Z,23.22
2016-07-27T02:17:33.592Z,23.22
2016-07-27T02:18:33.599Z,23.16
2016-07-27T02:19:33.619Z,23.14
2016-07-27T02:20:33.650Z,23.16
2016-07-27T02:22:33.655Z,23.18
2016-07-27T02:23:33.647Z,23.21
2016-07-27T02:24:33.680Z,23.24
2016-07-27T02:25:33.671Z,23.21
2016-07-27T02:26:33.685Z,23.16
2016-07-27T02:27:33.671Z,23.16
2016-07-27T02:28:33.706Z,23.19
2016-07-27T02:29:33.714Z,23.21
2016-07-27T02:30:33.717Z,23.16
2016-07-27T02:31:33.709Z,23.14
2016-07-27T02:32:33.695Z,23.16
2016-07-27T02:33:33.704Z,23.15
2016-07-27T02:34:33.746Z,23.12
2016-07-27T02:35:33.764Z,23.22
2016-07-27T02:37:33.812Z,23.12
2016-07-27T02:38:33.786Z,23.14
2016-07-27T02:39:33.770Z,23.15
2016-07-27T02:40:33.796Z,23.18
2016-07-27T02:41:33.823Z,23.22
2016-07-27T02:42:33.827Z,23.16
2016-07-27T02:43:33.790Z,23.1
2016-07-27T02:44:33.832Z,23.16
2016-07-27T02:45:33.846Z,23.19
2016-07-27T02:46:33.834Z,23.14
2016-07-27T02:47:33.823Z,23.14
2016-07-27T02:48:33.856Z,23.12
2016-07-27T02:49:33.841Z,23.19
2016-07-27T02:50:33.900Z,23.16
2016-07-27T02:51:33.890Z,23.16
2016-07-27T02:52:33.866Z,23.16
2016-07-27T02:53:33.872Z,23.14
2016-07-27T02:54:33.900Z,23.14
2016-07-27T02:55:33.901Z,23.14
2016-07-27T02:56:33.912Z,23.21
2016-07-27T02:57:33.955Z,23.14
2016-07-27T02:58:33.956Z,23.15
2016-07-27T02:59:33.944Z,23.12
2016-07-27T03:00:33.954Z,23.12
2016-07-27T03:01:33.973Z,23.1
2016-07-27T03:02:33.972Z,23.07
2016-07-27T03:03:33.959Z,23.12
2016-07-27T03:04:33.973Z,23.14
2016-07-27T03:05:33.974Z,23.09
2016-07-27T03:06:34.035Z,23.12
2016-07-27T03:07:34.020Z,23.12
2016-07-27T03:08:34.015Z,23.09
2016-07-27T03:09:34.057Z,23.07
2016-07-27T03:10:34.014Z,23.1
2016-07-27T03:11:34.077Z,23.1
2016-07-27T03:12:34.042Z,23.1
2016-07-27T03:13:34.096Z,23.1
2016-07-27T03:14:34.103Z,23.1
2016-07-27T03:15:34.078Z,23.15
2016-07-27T03:16:34.076Z,23.12
2016-07-27T03:17:34.128Z,23.09
2016-07-27T03:18:34.139Z,23.12
2016-07-27T03:19:34.138Z,23.14
2016-07-27T03:20:34.147Z,23.09
2016-07-27T03:21:34.140Z,23.19
2016-07-27T03:22:34.153Z,23.12
2016-07-27T03:23:34.144Z,23.15
2016-07-27T03:24:34.139Z,23.09
2016-07-27T03:25:34.167Z,23.04
2016-07-27T03:26:34.179Z,23.12
2016-07-27T03:27:34.179Z,23.15
2016-07-27T03:28:34.188Z,23.06
2016-07-27T03:29:34.193Z,23.12
2016-07-27T03:30:34.226Z,23.09
2016-07-27T03:31:34.216Z,23.12
2016-07-27T03:32:34.243Z,23.1
2016-07-27T03:33:34.415Z,23.1
2016-07-27T03:34:34.253Z,23.12
2016-07-27T03:35:34.275Z,23.1
2016-07-27T03:36:34.245Z,23.18
2016-07-27T03:37:34.275Z,23.16
2016-07-27T03:38:34.253Z,23.16
2016-07-27T03:39:34.302Z,23.15
2016-07-27T03:40:34.279Z,23.07
2016-07-27T03:41:34.310Z,23.1
2016-07-27T03:42:34.347Z,23.12
2016-07-27T03:43:34.336Z,23.12
2016-07-27T03:44:34.304Z,23.16
2016-07-27T03:45:34.323Z,23.12
2016-07-27T03:46:34.346Z,23.16
2016-07-27T03:47:34.374Z,23.06
2016-07-27T03:48:34.385Z,23.09
2016-07-27T03:49:34.374Z,23.12
2016-07-27T03:50:34.374Z,23.12
2016-07-27T03:51:34.404Z,23.18
2016-07-27T03:52:35.127Z,23.12
2016-07-27T03:53:35.144Z,23.12
2016-07-27T03:54:34.446Z,23.06
2016-07-27T03:55:34.407Z,23.12
2016-07-27T03:56:34.436Z,23.12
2016-07-27T03:57:34.462Z,23.1
2016-07-27T03:58:34.438Z,23.14
2016-07-27T03:59:34.429Z,23.12
2016-07-27T04:00:34.457Z,23.15
2016-07-27T04:01:34.465Z,23.09
2016-07-27T04:02:34.482Z,23.1
2016-07-27T04:03:34.493Z,23.09
2016-07-27T04:04:34.486Z,23.12
2016-07-27T04:05:34.497Z,23.12
2016-07-27T04:06:34.520Z,23.15
2016-07-27T04:07:34.509Z,23.15
2016-07-27T04:08:34.544Z,23.18
2016-07-27T04:09:34.544Z,23.12
2016-07-27T04:10:34.533Z,23.09
2016-07-27T04:11:34.567Z,23.14
2016-07-27T04:12:34.547Z,23.16
2016-07-27T04:13:34.548Z,23.12
2016-07-27T04:14:34.595Z,23.12
2016-07-27T04:15:34.567Z,23.09
2016-07-27T04:16:34.609Z,23.19
2016-07-27T04:17:34.576Z,23.12
2016-07-27T04:18:34.623Z,23.06
2016-07-27T04:19:34.599Z,23.06
2016-07-27T04:20:34.623Z,23.09
2016-07-27T04:21:34.645Z,23.14
2016-07-27T04:22:34.635Z,23.12
2016-07-27T04:23:34.662Z,23.09
2016-07-27T04:24:34.667Z,23.1
2016-07-27T04:25:34.679Z,23.1
2016-07-27T04:26:34.674Z,23.09
2016-07-27T04:27:34.696Z,23.12
2016-07-27T04:28:34.675Z,23.12
2016-07-27T04:29:34.708Z,23.12
2016-07-27T04:30:34.688Z,23.15
2016-07-27T04:31:34.705Z,23.14
2016-07-27T04:32:34.743Z,23.14
2016-07-27T04:33:34.854Z,23.18
2016-07-27T04:34:34.723Z,23.12
2016-07-27T04:35:34.753Z,23.12
2016-07-27T04:36:34.757Z,23.12
2016-07-27T04:37:34.770Z,23.12
2016-07-27T04:38:34.779Z,23.19
2016-07-27T04:39:34.791Z,23.16
2016-07-27T04:40:34.827Z,23.16
2016-07-27T04:41:34.799Z,23.16
2016-07-27T04:42:34.805Z,23.15
2016-07-27T04:43:34.862Z,23.22
2016-07-27T04:44:34.826Z,23.19
2016-07-27T04:45:34.835Z,23.15
2016-07-27T04:46:34.871Z,23.15
2016-07-27T04:47:34.870Z,23.22
2016-07-27T04:48:34.842Z,23.18
2016-07-27T04:49:34.879Z,23.24
2016-07-27T04:50:34.879Z,23.15
2016-07-27T04:51:34.872Z,23.16
2016-07-27T04:52:34.889Z,23.18
2016-07-27T04:53:34.919Z,23.26
2016-07-27T04:54:34.923Z,23.22
2016-07-27T04:55:34.932Z,23.24
2016-07-27T04:56:34.943Z,23.25
2016-07-27T04:57:34.973Z,23.24
2016-07-27T04:58:34.929Z,23.28
2016-07-27T04:59:34.976Z,23.22
2016-07-27T05:00:34.984Z,23.28
2016-07-27T05:01:34.980Z,23.28
2016-07-27T05:02:34.969Z,23.26
2016-07-27T05:03:34.997Z,23.24
2016-07-27T05:04:34.973Z,23.25
2016-07-27T05:05:35.712Z,23.21
2016-07-27T05:06:35.015Z,23.24
2016-07-27T05:07:35.014Z,23.19
2016-07-27T05:08:35.036Z,23.21
2016-07-27T05:09:35.038Z,23.24
2016-07-27T05:10:35.052Z,23.22
2016-07-27T05:11:35.052Z,23.22
2016-07-27T05:12:35.104Z,23.24
2016-07-27T05:13:35.092Z,23.22
2016-07-27T05:14:35.105Z,23.19
2016-07-27T05:15:35.101Z,23.15
2016-07-27T05:16:35.074Z,23.28
2016-07-27T05:17:35.139Z,23.26
2016-07-27T05:18:35.118Z,23.28
2016-07-27T05:19:35.149Z,23.34
2016-07-27T05:20:35.157Z,23.35
2016-07-27T05:21:35.148Z,23.32
2016-07-27T05:22:35.167Z,23.32
2016-07-27T05:23:35.191Z,23.28
2016-07-27T05:24:35.175Z,23.4
2016-07-27T05:25:35.192Z,23.32
2016-07-27T05:26:35.208Z,23.4
2016-07-27T05:27:35.178Z,23.38
2016-07-27T05:28:35.200Z,23.34
2016-07-27T05:29:35.194Z,23.37
2016-07-27T05:30:35.217Z,23.37
2016-07-27T05:31:35.254Z,23.34
2016-07-27T05:32:35.236Z,23.37
2016-07-27T05:33:35.304Z,23.37
2016-07-27T05:34:35.281Z,23.38
2016-07-27T05:35:35.984Z,23.34
2016-07-27T05:36:35.243Z,23.38
2016-07-27T05:37:35.282Z,23.37
2016-07-27T05:38:35.297Z,23.41
2016-07-27T05:39:35.294Z,23.34
2016-07-27T05:40:35.321Z,23.4
2016-07-27T05:41:35.318Z,23.4
2016-07-27T05:42:35.327Z,23.38
2016-07-27T05:43:35.372Z,23.42
2016-07-27T05:44:35.349Z,23.35
2016-07-27T05:45:35.336Z,23.4
2016-07-27T05:46:35.372Z,23.35
2016-07-27T05:47:35.348Z,23.35
2016-07-27T05:48:35.400Z,23.28
2016-07-27T05:49:35.380Z,23.4
2016-07-27T05:50:35.414Z,23.4
2016-07-27T05:51:35.405Z,23.38
2016-07-27T05:52:35.444Z,23.32
2016-07-27T05:53:35.439Z,23.41
2016-07-27T05:54:35.429Z,23.41
2016-07-27T05:55:35.469Z,23.47
2016-07-27T05:56:35.447Z,23.45
2016-07-27T05:57:35.452Z,23.42
2016-07-27T05:58:35.474Z,23.47
2016-07-27T05:59:35.452Z,23.42
2016-07-27T06:00:35.506Z,23.41
2016-07-27T06:01:35.494Z,23.35
2016-07-27T06:02:35.507Z,23.41
2016-07-27T06:03:35.499Z,23.47
2016-07-27T06:04:35.537Z,23.37
2016-07-27T06:05:35.500Z,23.42
2016-07-27T06:06:35.528Z,23.41
2016-07-27T06:07:35.572Z,23.44
2016-07-27T06:08:35.556Z,23.47
2016-07-27T06:09:35.586Z,23.48
2016-07-27T06:10:35.572Z,23.44
2016-07-27T06:11:35.589Z,23.44
2016-07-27T06:12:35.588Z,23.47
2016-07-27T06:13:35.620Z,23.48
2016-07-27T06:14:35.612Z,23.5
2016-07-27T06:15:35.609Z,23.56
2016-07-27T06:16:35.615Z,23.47
2016-07-27T06:17:35.655Z,23.45
2016-07-27T06:18:35.633Z,23.48
2016-07-27T06:19:35.636Z,23.57
2016-07-27T06:20:35.664Z,23.53
2016-07-27T06:21:35.689Z,23.5
2016-07-27T06:22:35.658Z,23.56
2016-07-27T06:23:35.693Z,23.57
2016-07-27T06:24:35.698Z,23.59
2016-07-27T06:25:35.684Z,23.56
2016-07-27T06:26:35.700Z,23.56
2016-07-27T06:27:35.713Z,23.56
2016-07-27T06:28:35.731Z,23.59
2016-07-27T06:29:35.724Z,23.57
2016-07-27T06:30:35.734Z,23.56
2016-07-27T06:31:35.748Z,23.57
2016-07-27T06:32:35.744Z,23.53
2016-07-27T06:33:35.787Z,23.57
2016-07-27T06:34:35.765Z,23.56
2016-07-27T06:35:35.754Z,23.56
2016-07-27T06:36:35.789Z,23.59
2016-07-27T06:37:35.785Z,23.6
2016-07-27T06:38:35.777Z,23.62
2016-07-27T06:39:35.808Z,23.59
2016-07-27T06:40:35.822Z,23.59
2016-07-27T06:41:35.837Z,23.66
2016-07-27T06:42:35.843Z,23.63
2016-07-27T06:43:35.836Z,23.62
2016-07-27T06:44:35.833Z,23.67
2016-07-27T06:45:35.837Z,23.62
2016-07-27T06:46:35.870Z,23.67
2016-07-27T06:47:35.885Z,23.64
2016-07-27T06:48:35.906Z,23.57
2016-07-27T06:49:35.891Z,23.64
2016-07-27T06:50:35.911Z,23.63
2016-07-27T06:51:35.944Z,23.67
2016-07-27T06:52:35.908Z,23.62
2016-07-27T06:53:35.934Z,23.7
2016-07-27T06:54:35.958Z,23.64
2016-07-27T06:55:35.975Z,23.66
2016-07-27T06:56:35.964Z,23.67
2016-07-27T06:57:35.964Z,23.63
2016-07-27T06:58:35.980Z,23.64
2016-07-27T06:59:36.003Z,23.67
2016-07-27T07:00:35.968Z,23.67
2016-07-27T07:01:36.018Z,23.64
2016-07-27T07:02:35.996Z,23.67
2016-07-27T07:03:36.027Z,23.7
2016-07-27T07:04:36.023Z,23.72
2016-07-27T07:05:36.025Z,23.72
2016-07-27T07:06:36.018Z,23.66
2016-07-27T07:07:36.042Z,23.7
2016-07-27T07:08:36.083Z,23.74
2016-07-27T07:09:36.065Z,23.74
2016-07-27T07:10:36.108Z,23.79
2016-07-27T07:11:36.072Z,23.74
2016-07-27T07:12:36.078Z,23.72
2016-07-27T07:13:36.107Z,23.77
2016-07-27T07:14:36.119Z,23.81
2016-07-27T07:15:36.149Z,23.82
2016-07-27T07:16:36.108Z,23.71
2016-07-27T07:17:36.146Z,23.77
2016-07-27T07:18:36.169Z,23.77
2016-07-27T07:19:36.188Z,23.81
2016-07-27T07:20:36.162Z,23.78
2016-07-27T07:21:36.174Z,23.7
2016-07-27T07:22:36.167Z,23.78
2016-07-27T07:23:36.221Z,23.77
2016-07-27T07:24:36.195Z,23.79
2016-07-27T07:25:36.200Z,23.75
2016-07-27T07:26:36.187Z,23.82
2016-07-27T07:27:36.208Z,23.79
2016-07-27T07:28:36.965Z,23.77
2016-07-27T07:29:36.216Z,23.75
2016-07-27T07:30:36.260Z,23.75
2016-07-27T07:31:36.236Z,23.77
2016-07-27T07:32:36.244Z,23.81
2016-07-27T07:33:36.253Z,23.77
2016-07-27T07:34:36.263Z,23.78
2016-07-27T07:35:36.303Z,23.81
2016-07-27T07:36:36.312Z,23.81
2016-07-27T07:37:36.322Z,23.85
2016-07-27T07:38:36.338Z,23.81
2016-07-27T07:39:36.305Z,23.82
2016-07-27T07:40:36.338Z,23.75
2016-07-27T07:41:36.342Z,23.79
2016-07-27T07:42:36.356Z,23.84
2016-07-27T07:43:36.371Z,23.84
2016-07-27T07:44:36.400Z,23.78
2016-07-27T07:45:36.388Z,23.85
2016-07-27T07:46:36.396Z,23.89
2016-07-27T07:47:36.387Z,23.89
2016-07-27T07:48:36.410Z,23.87
2016-07-27T07:49:36.400Z,23.93
2016-07-27T07:50:36.402Z,23.85
2016-07-27T07:51:36.410Z,23.92
2016-07-27T07:52:36.452Z,23.93
2016-07-27T07:53:36.463Z,23.93
2016-07-27T07:54:36.442Z,23.97
2016-07-27T07:55:36.510Z,23.97
2016-07-27T07:56:36.453Z,23.93
2016-07-27T07:57:36.499Z,23.89
2016-07-27T07:58:36.485Z,23.99
2016-07-27T07:59:36.508Z,23.94
2016-07-27T08:00:36.496Z,23.99
2016-07-27T08:01:36.525Z,23.93
2016-07-27T08:02:36.537Z,23.93
2016-07-27T08:03:36.513Z,23.94
2016-07-27T08:04:36.546Z,23.9
2016-07-27T08:05:36.567Z,23.97
2016-07-27T08:06:36.548Z,23.9
2016-07-27T08:07:36.569Z,23.92
2016-07-27T08:08:36.563Z,23.92
2016-07-27T08:09:36.591Z,24.08
2016-07-27T08:11:36.584Z,23.97
2016-07-27T08:12:36.629Z,24.03
2016-07-27T08:13:36.621Z,24.02
2016-07-27T08:14:36.602Z,24.03
2016-07-27T08:15:36.630Z,24.09
2016-07-27T08:16:36.640Z,24.08
2016-07-27T08:17:36.653Z,24.09
2016-07-27T08:18:36.696Z,24.03
2016-07-27T08:19:36.678Z,24.03
2016-07-27T08:20:36.688Z,23.99
2016-07-27T08:21:36.689Z,24.09
2016-07-27T08:22:36.738Z,24.09
2016-07-27T08:23:36.733Z,24.02
2016-07-27T08:24:36.721Z,24.04
2016-07-27T08:25:36.722Z,24.03
2016-07-27T08:26:36.740Z,24.04
2016-07-27T08:27:36.764Z,24.08
2016-07-27T08:28:36.775Z,24.03
2016-07-27T08:29:36.796Z,24.03
2016-07-27T08:30:36.764Z,24.08
2016-07-27T08:31:36.758Z,24.11
2016-07-27T08:32:36.795Z,24.11
2016-07-27T08:33:36.788Z,24.07
2016-07-27T08:34:36.815Z,24.12
2016-07-27T08:35:36.827Z,24.12
2016-07-27T08:36:36.823Z,24.12
2016-07-27T08:38:36.835Z,24.18
2016-07-27T08:39:36.833Z,24.22
2016-07-27T08:40:36.858Z,24.17
2016-07-27T08:41:36.846Z,24.17
2016-07-27T08:42:36.864Z,24.17
2016-07-27T08:43:36.885Z,24.19
2016-07-27T08:44:36.882Z,24.17
2016-07-27T08:45:36.918Z,24.24
2016-07-27T08:46:36.895Z,24.21
2016-07-27T08:47:36.923Z,24.26
2016-07-27T08:48:36.908Z,24.18
2016-07-27T08:49:36.901Z,24.18
2016-07-27T08:50:37.669Z,24.18
2016-07-27T08:51:36.957Z,24.15
2016-07-27T08:53:36.971Z,24.21
2016-07-27T08:54:36.977Z,24.27
2016-07-27T08:55:37.010Z,24.24
2016-07-27T08:56:36.987Z,24.26
2016-07-27T08:57:37.000Z,24.24
2016-07-27T08:58:36.983Z,24.17
2016-07-27T08:59:37.024Z,24.24
2016-07-27T09:00:37.020Z,24.26
2016-07-27T09:01:37.007Z,24.15
2016-07-27T09:02:37.074Z,24.19
2016-07-27T09:03:37.033Z,24.22
2016-07-27T09:04:37.068Z,24.21
2016-07-27T09:05:37.075Z,24.24
2016-07-27T09:06:37.098Z,24.29
2016-07-27T09:08:37.113Z,24.21
2016-07-27T09:09:37.111Z,24.21
2016-07-27T09:10:37.106Z,24.24
2016-07-27T09:11:37.111Z,24.22
2016-07-27T09:12:37.111Z,24.26
2016-07-27T09:13:37.160Z,24.26
2016-07-27T09:14:37.124Z,24.29
2016-07-27T09:15:37.166Z,24.27
2016-07-27T09:16:37.193Z,24.24
2016-07-27T09:17:37.170Z,24.24
2016-07-27T09:18:37.213Z,24.17
2016-07-27T09:19:37.198Z,24.3
2016-07-27T09:20:37.181Z,24.26
2016-07-27T09:21:37.215Z,24.24
2016-07-27T09:23:37.235Z,24.33
2016-07-27T09:24:37.211Z,24.17
2016-07-27T09:25:37.277Z,24.17
2016-07-27T09:26:37.281Z,24.18
2016-07-27T09:27:37.294Z,24.17
2016-07-27T09:28:37.301Z,24.27
2016-07-27T09:29:37.275Z,24.26
2016-07-27T09:30:37.289Z,24.19
2016-07-27T09:31:37.328Z,24.32
2016-07-27T09:32:37.309Z,24.36
2016-07-27T09:33:37.342Z,24.32
2016-07-27T09:34:37.333Z,24.3
2016-07-27T09:35:37.347Z,24.34
2016-07-27T09:36:37.359Z,24.4
2016-07-27T09:37:37.369Z,24.42
2016-07-27T09:38:38.037Z,24.4
2016-07-27T09:39:37.368Z,24.42
2016-07-27T09:40:37.371Z,24.48
2016-07-27T09:41:37.398Z,24.39
2016-07-27T09:42:37.403Z,24.44
2016-07-27T09:43:37.412Z,24.54
2016-07-27T09:44:37.400Z,24.48
2016-07-27T09:45:37.431Z,24.56
2016-07-27T09:46:37.438Z,24.52
2016-07-27T09:47:37.472Z,24.51
2016-07-27T09:48:37.436Z,24.59
2016-07-27T09:49:37.491Z,24.61
2016-07-27T09:50:37.490Z,24.63
2016-07-27T09:51:37.482Z,24.55
2016-07-27T09:52:37.510Z,24.58
2016-07-27T09:53:37.471Z,24.58
2016-07-27T09:54:37.519Z,24.69
2016-07-27T09:55:37.489Z,24.69
2016-07-27T09:56:37.561Z,24.67
2016-07-27T09:57:37.549Z,24.69
2016-07-27T09:58:37.531Z,24.69
2016-07-27T09:59:37.542Z,24.71
2016-07-27T10:00:37.588Z,24.77
2016-07-27T10:01:37.552Z,24.69
2016-07-27T10:02:37.575Z,24.7
2016-07-27T10:03:37.566Z,24.77
2016-07-27T10:04:37.561Z,24.69
2016-07-27T10:05:37.583Z,24.71
2016-07-27T10:06:37.591Z,24.67
2016-07-27T10:07:37.638Z,24.74
2016-07-27T10:08:37.645Z,24.69
2016-07-27T10:09:37.636Z,24.71
2016-07-27T10:10:37.627Z,24.75
2016-07-27T10:11:37.663Z,24.71
2016-07-27T10:12:37.646Z,24.7
2016-07-27T10:13:37.675Z,24.74
2016-07-27T10:14:37.668Z,24.75
2016-07-27T10:15:37.705Z,24.77
2016-07-27T10:16:37.706Z,24.8
2016-07-27T10:17:37.682Z,24.9
2016-07-27T10:18:37.694Z,24.86
2016-07-27T10:19:37.728Z,24.78
2016-07-27T10:20:37.713Z,24.75
2016-07-27T10:21:37.703Z,24.8
2016-07-27T10:22:37.737Z,24.86
2016-07-27T10:23:37.722Z,24.92
2016-07-27T10:24:37.779Z,24.92
2016-07-27T10:25:37.755Z,24.85
2016-07-27T10:26:37.798Z,24.87
2016-07-27T10:27:37.777Z,24.92
2016-07-27T10:28:37.782Z,24.94
2016-07-27T10:29:37.810Z,24.94
2016-07-27T10:30:37.805Z,24.92
2016-07-27T10:31:37.813Z,25
2016-07-27T10:32:37.830Z,25.02
2016-07-27T10:33:37.845Z,25.05
2016-07-27T10:34:37.920Z,25.04
2016-07-27T10:35:37.851Z,25.09
2016-07-27T10:36:37.874Z,25.09
2016-07-27T10:37:37.874Z,25.08
2016-07-27T10:38:37.876Z,25.12
2016-07-27T10:39:37.876Z,25.08
2016-07-27T10:40:37.910Z,25.19
2016-07-27T10:41:37.927Z,25.05
2016-07-27T10:42:37.912Z,25.19
2016-07-27T10:43:37.933Z,25.2
2016-07-27T10:44:37.962Z,25.17
2016-07-27T10:45:37.950Z,25.15
2016-07-27T10:46:37.982Z,25.33
2016-07-27T10:47:37.970Z,25.32
2016-07-27T10:48:37.982Z,25.3
2016-07-27T10:49:37.989Z,25.34
2016-07-27T10:50:37.990Z,25.22
2016-07-27T10:52:38.019Z,25.23
2016-07-27T10:53:38.018Z,25.17
2016-07-27T10:54:38.047Z,25.23
2016-07-27T10:55:38.043Z,25.2
2016-07-27T10:56:38.028Z,25.17
2016-07-27T10:57:38.757Z,25.29
2016-07-27T10:58:38.042Z,25.26
2016-07-27T10:59:38.055Z,25.26
2016-07-27T11:00:38.055Z,25.27
2016-07-27T11:01:38.072Z,25.38
2016-07-27T11:02:38.102Z,25.37
2016-07-27T11:03:38.138Z,25.29
2016-07-27T11:04:38.094Z,25.37
2016-07-27T11:05:38.144Z,25.39
2016-07-27T11:06:38.134Z,25.48
2016-07-27T11:07:38.163Z,25.47
2016-07-27T11:08:38.153Z,25.41
2016-07-27T11:09:38.175Z,25.45
2016-07-27T11:10:38.172Z,25.47
2016-07-27T11:11:38.170Z,25.56
2016-07-27T11:12:38.913Z,25.49
2016-07-27T11:13:38.178Z,25.51
2016-07-27T11:14:38.215Z,25.54
2016-07-27T11:15:38.249Z,25.52
2016-07-27T11:16:38.259Z,25.54
2016-07-27T11:17:38.267Z,25.66
2016-07-27T11:18:38.238Z,25.64
2016-07-27T11:19:38.275Z,25.66
2016-07-27T11:20:38.254Z,25.79
2016-07-27T11:21:38.252Z,25.66
2016-07-27T11:22:38.283Z,25.67
2016-07-27T11:23:38.307Z,25.64
2016-07-27T11:24:38.282Z,25.71
2016-07-27T11:25:38.340Z,25.74
2016-07-27T11:26:38.339Z,25.75
2016-07-27T11:27:38.309Z,25.67
2016-07-27T11:28:38.358Z,25.7
2016-07-27T11:29:38.348Z,25.74
2016-07-27T11:30:38.348Z,25.79
2016-07-27T11:31:38.376Z,25.74
2016-07-27T11:32:38.390Z,25.79
2016-07-27T11:33:38.382Z,25.79
2016-07-27T11:34:38.540Z,25.82
2016-07-27T11:35:38.427Z,25.86
2016-07-27T11:36:38.455Z,25.78
2016-07-27T11:37:38.426Z,25.82
2016-07-27T11:38:38.448Z,25.82
2016-07-27T11:39:39.150Z,25.81
2016-07-27T11:40:38.464Z,25.86
2016-07-27T11:41:38.506Z,25.86
2016-07-27T11:42:38.466Z,25.84
2016-07-27T11:43:38.470Z,25.85
2016-07-27T11:44:38.476Z,25.78
2016-07-27T11:45:38.522Z,25.7
2016-07-27T11:46:38.510Z,25.74
2016-07-27T11:47:38.525Z,25.69
2016-07-27T11:48:38.525Z,25.67
2016-07-27T11:49:38.545Z,25.7
2016-07-27T11:50:38.574Z,25.75
2016-07-27T11:51:38.536Z,25.76
2016-07-27T11:52:38.571Z,25.78
2016-07-27T11:53:38.558Z,25.82
2016-07-27T11:54:38.574Z,25.93
2016-07-27T11:55:38.579Z,25.93
2016-07-27T11:56:38.616Z,25.94
2016-07-27T11:57:38.623Z,25.94
2016-07-27T11:58:38.610Z,25.89
2016-07-27T11:59:38.650Z,25.97
2016-07-27T12:00:38.657Z,25.93
2016-07-27T12:01:38.653Z,25.99
2016-07-27T12:02:38.639Z,25.97
2016-07-27T12:03:38.680Z,26.12
2016-07-27T12:04:38.683Z,26.15
2016-07-27T12:05:38.731Z,26.09
2016-07-27T12:06:38.725Z,26.11
2016-07-27T12:07:38.730Z,26.11
2016-07-27T12:08:38.716Z,26.07
2016-07-27T12:09:38.749Z,26.12
2016-07-27T12:10:38.727Z,26.04
2016-07-27T12:11:38.724Z,26.06
2016-07-27T12:12:38.755Z,26.11
2016-07-27T12:13:38.780Z,26.09
2016-07-27T12:14:38.782Z,26.09
2016-07-27T12:15:38.805Z,26.11
2016-07-27T12:16:38.828Z,26.11
2016-07-27T12:17:38.816Z,25.99
2016-07-27T12:18:38.840Z,26.01
2016-07-27T12:19:38.822Z,26.01
2016-07-27T12:20:38.833Z,26.09
2016-07-27T12:21:38.879Z,26.09
2016-07-27T12:22:38.877Z,26.24
2016-07-27T12:23:38.879Z,26.24
2016-07-27T12:24:38.875Z,26.23
2016-07-27T12:25:38.894Z,26.17
2016-07-27T12:26:38.915Z,26.23
2016-07-27T12:27:38.912Z,26.19
2016-07-27T12:28:38.961Z,26.22
2016-07-27T12:29:38.933Z,26.27
2016-07-27T12:30:38.945Z,26.27
2016-07-27T12:31:38.915Z,26.2
2016-07-27T12:32:38.959Z,26.31
2016-07-27T12:33:38.941Z,26.23
2016-07-27T12:34:39.028Z,26.26
2016-07-27T12:35:38.993Z,26.37
2016-07-27T12:36:39.001Z,26.38
2016-07-27T12:37:38.998Z,26.34
2016-07-27T12:38:38.995Z,26.35
2016-07-27T12:39:39.030Z,26.37
2016-07-27T12:40:39.029Z,26.41
2016-07-27T12:41:39.064Z,26.45
2016-07-27T12:42:39.045Z,26.44
2016-07-27T12:43:39.069Z,26.44
2016-07-27T12:44:39.085Z,26.45
2016-07-27T12:45:39.077Z,26.45
2016-07-27T12:46:39.073Z,26.45
2016-07-27T12:47:39.117Z,26.5
2016-07-27T12:48:39.139Z,26.54
2016-07-27T12:49:39.122Z,26.54
2016-07-27T12:50:39.127Z,26.53
2016-07-27T12:51:39.134Z,26.39
2016-07-27T12:52:39.166Z,26.47
2016-07-27T12:53:39.173Z,26.54
2016-07-27T12:54:39.174Z,26.6
2016-07-27T12:55:39.180Z,26.59
2016-07-27T12:56:39.163Z,26.68
2016-07-27T12:57:39.213Z,26.72
2016-07-27T12:58:39.226Z,26.71
2016-07-27T12:59:39.243Z,26.69
2016-07-27T13:00:39.209Z,26.63
2016-07-27T13:01:39.261Z,26.61
2016-07-27T13:02:39.275Z,26.68
2016-07-27T13:03:39.254Z,26.63
2016-07-27T13:04:39.266Z,26.6
2016-07-27T13:05:39.272Z,26.59